sensor_id;sensor_type;location;lat;lon;timestamp;pressure;altitude;pressure_sealevel;temperature;humidity
9746;BME280;4912;50.836;12.958;2022-10-16T00:00:41;97581.19;;;17.67;100.00
9746;BME280;4912;50.836;12.958;2022-10-16T00:03:12;97578.91;;;17.65;100.00
9746;BME280;4912;50.836;12.958;2022-10-16T00:05:43;97575.88;;;17.63;100.00
9746;BME280;4912;50.836;12.958;2022-10-16T00:08:14;97584.22;;;17.69;100.00
9746;BME280;4912;50.836;12.958;2022-10-16T00:10:44;97579.19;;;17.62;100.00
9746;BME280;4912;50.836;12.958;2022-10-16T00:13:17;97578.94;;;17.59;100.00
9746;BME280;4912;50.836;12.958;2022-10-16T00:15:47;97579.19;;;17.62;100.00
9746;BME280;4912;50.836;12.958;2022-10-16T00:18:17;97579.38;;;17.69;100.00
9746;BME280;4912;50.836;12.958;2022-10-16T00:20:48;97582.13;;;17.75;100.00
9746;BME280;4912;50.836;12.958;2022-10-16T00:23:18;97590.31;;;17.73;100.00
9746;BME280;4912;50.836;12.958;2022-10-16T00:25:54;97592.03;;;17.76;100.00
9746;BME280;4912;50.836;12.958;2022-10-16T00:28:28;97598.09;;;17.80;100.00
9746;BME280;4912;50.836;12.958;2022-10-16T00:31:02;97604.28;;;17.73;100.00
9746;BME280;4912;50.836;12.958;2022-10-16T00:33:34;97610.63;;;17.73;100.00
9746;BME280;4912;50.836;12.958;2022-10-16T00:36:07;97596.16;;;17.69;100.00
9746;BME280;4912;50.836;12.958;2022-10-16T00:38:39;97600.19;;;17.74;100.00
9746;BME280;4912;50.836;12.958;2022-10-16T00:41:12;97612.69;;;17.73;100.00
9746;BME280;4912;50.836;12.958;2022-10-16T00:43:49;97621.59;;;17.71;100.00
9746;BME280;4912;50.836;12.958;2022-10-16T00:46:22;97622.13;;;17.70;100.00
9746;BME280;4912;50.836;12.958;2022-10-16T00:48:58;97622.06;;;17.75;100.00
9746;BME280;4912;50.836;12.958;2022-10-16T00:51:34;97620.75;;;17.82;100.00
9746;BME280;4912;50.836;12.958;2022-10-16T00:54:09;97619.66;;;17.90;100.00
9746;BME280;4912;50.836;12.958;2022-10-16T00:56:42;97626.25;;;17.93;100.00
9746;BME280;4912;50.836;12.958;2022-10-16T00:59:19;97624.97;;;17.94;100.00
9746;BME280;4912;50.836;12.958;2022-10-16T01:01:54;97629.56;;;17.91;100.00
9746;BME280;4912;50.836;12.958;2022-10-16T01:04:25;97634.06;;;18.00;100.00
9746;BME280;4912;50.836;12.958;2022-10-16T01:07:03;97622.13;;;17.99;100.00
9746;BME280;4912;50.836;12.958;2022-10-16T01:09:47;97626.72;;;17.97;100.00
9746;BME280;4912;50.836;12.958;2022-10-16T01:12:29;97623.44;;;17.93;100.00
9746;BME280;4912;50.836;12.958;2022-10-16T01:15:17;97622.94;;;17.94;100.00
9746;BME280;4912;50.836;12.958;2022-10-16T01:17:55;97621.13;;;17.97;100.00
9746;BME280;4912;50.836;12.958;2022-10-16T01:20:30;97625.56;;;18.11;100.00
9746;BME280;4912;50.836;12.958;2022-10-16T01:23:10;97626.94;;;18.29;100.00
9746;BME280;4912;50.836;12.958;2022-10-16T01:29:02;97619.53;;;18.31;100.00
9746;BME280;4912;50.836;12.958;2022-10-16T01:31:36;97617.72;;;18.34;100.00
9746;BME280;4912;50.836;12.958;2022-10-16T01:34:12;97618.00;;;18.30;100.00
9746;BME280;4912;50.836;12.958;2022-10-16T01:36:47;97613.38;;;18.33;100.00
9746;BME280;4912;50.836;12.958;2022-10-16T01:39:24;97618.06;;;18.25;100.00
9746;BME280;4912;50.836;12.958;2022-10-16T01:42:02;97621.56;;;18.31;100.00
9746;BME280;4912;50.836;12.958;2022-10-16T01:44:38;97626.69;;;18.27;100.00
9746;BME280;4912;50.836;12.958;2022-10-16T01:47:10;97621.84;;;18.27;100.00
9746;BME280;4912;50.836;12.958;2022-10-16T01:49:44;97619.53;;;18.31;100.00
9746;BME280;4912;50.836;12.958;2022-10-16T01:52:17;97614.72;;;18.26;100.00
9746;BME280;4912;50.836;12.958;2022-10-16T01:54:53;97610.19;;;18.23;100.00
9746;BME280;4912;50.836;12.958;2022-10-16T01:57:26;97620.94;;;18.19;100.00
9746;BME280;4912;50.836;12.958;2022-10-16T02:00:04;97616.34;;;18.16;100.00
9746;BME280;4912;50.836;12.958;2022-10-16T02:02:40;97619.97;;;18.11;100.00
9746;BME280;4912;50.836;12.958;2022-10-16T02:05:16;97623.59;;;18.06;100.00
9746;BME280;4912;50.836;12.958;2022-10-16T02:07:50;97623.13;;;18.02;100.00
9746;BME280;4912;50.836;12.958;2022-10-16T02:10:20;97627.97;;;18.02;100.00
9746;BME280;4912;50.836;12.958;2022-10-16T02:12:56;97625.16;;;18.02;100.00
9746;BME280;4912;50.836;12.958;2022-10-16T02:15:31;97628.22;;;17.98;100.00
9746;BME280;4912;50.836;12.958;2022-10-16T02:18:01;97633.84;;;17.98;100.00
9746;BME280;4912;50.836;12.958;2022-10-16T02:20:34;97628.72;;;18.02;100.00
9746;BME280;4912;50.836;12.958;2022-10-16T02:23:11;97634.44;;;18.15;100.00
9746;BME280;4912;50.836;12.958;2022-10-16T02:25:44;97621.69;;;18.20;100.00
9746;BME280;4912;50.836;12.958;2022-10-16T02:28:18;97635.63;;;18.25;100.00
9746;BME280;4912;50.836;12.958;2022-10-16T02:30:57;97639.47;;;18.22;100.00
9746;BME280;4912;50.836;12.958;2022-10-16T02:33:30;97640.22;;;18.23;100.00
9746;BME280;4912;50.836;12.958;2022-10-16T02:36:02;97644.09;;;18.20;100.00
9746;BME280;4912;50.836;12.958;2022-10-16T02:38:32;97631.38;;;18.19;100.00
9746;BME280;4912;50.836;12.958;2022-10-16T02:41:06;97628.56;;;18.19;100.00
9746;BME280;4912;50.836;12.958;2022-10-16T02:43:36;97617.59;;;18.21;100.00
9746;BME280;4912;50.836;12.958;2022-10-16T02:46:09;97613.22;;;18.25;100.00
9746;BME280;4912;50.836;12.958;2022-10-16T02:48:39;97619.75;;;18.33;100.00
9746;BME280;4912;50.836;12.958;2022-10-16T02:51:09;97612.34;;;18.36;100.00
9746;BME280;4912;50.836;12.958;2022-10-16T02:53:39;97623.31;;;18.34;100.00
9746;BME280;4912;50.836;12.958;2022-10-16T02:56:09;97633.53;;;18.31;100.00
9746;BME280;4912;50.836;12.958;2022-10-16T02:58:39;97639.59;;;18.35;100.00
9746;BME280;4912;50.836;12.958;2022-10-16T03:01:12;97638.53;;;18.38;100.00
9746;BME280;4912;50.836;12.958;2022-10-16T03:03:43;97642.66;;;18.37;100.00
9746;BME280;4912;50.836;12.958;2022-10-16T03:06:14;97640.88;;;18.34;100.00
9746;BME280;4912;50.836;12.958;2022-10-16T03:08:44;97640.88;;;18.34;100.00
9746;BME280;4912;50.836;12.958;2022-10-16T03:11:14;97633.47;;;18.37;100.00
9746;BME280;4912;50.836;12.958;2022-10-16T03:13:45;97639.09;;;18.37;100.00
9746;BME280;4912;50.836;12.958;2022-10-16T03:16:17;97637.38;;;18.28;100.00
9746;BME280;4912;50.836;12.958;2022-10-16T03:18:48;97638.44;;;18.25;100.00
9746;BME280;4912;50.836;12.958;2022-10-16T03:21:19;97646.84;;;18.25;100.00
9746;BME280;4912;50.836;12.958;2022-10-16T03:23:49;97639.97;;;18.21;100.00
9746;BME280;4912;50.836;12.958;2022-10-16T03:26:19;97633.88;;;18.22;100.00
9746;BME280;4912;50.836;12.958;2022-10-16T03:28:49;97630.31;;;18.22;100.00
9746;BME280;4912;50.836;12.958;2022-10-16T03:31:22;97632.59;;;18.23;100.00
9746;BME280;4912;50.836;12.958;2022-10-16T03:33:52;97625.72;;;18.24;100.00
9746;BME280;4912;50.836;12.958;2022-10-16T03:36:22;97630.25;;;18.27;100.00
9746;BME280;4912;50.836;12.958;2022-10-16T03:38:52;97636.41;;;18.26;100.00
9746;BME280;4912;50.836;12.958;2022-10-16T03:41:22;97639.94;;;18.26;100.00
9746;BME280;4912;50.836;12.958;2022-10-16T03:43:52;97652.19;;;18.23;100.00
9746;BME280;4912;50.836;12.958;2022-10-16T03:46:25;97658.56;;;18.24;100.00
9746;BME280;4912;50.836;12.958;2022-10-16T03:48:56;97661.34;;;18.24;100.00
9746;BME280;4912;50.836;12.958;2022-10-16T03:51:29;97666.19;;;18.23;100.00
9746;BME280;4912;50.836;12.958;2022-10-16T03:54:00;97658.81;;;18.20;100.00
9746;BME280;4912;50.836;12.958;2022-10-16T03:56:30;97664.44;;;18.20;100.00
9746;BME280;4912;50.836;12.958;2022-10-16T03:59:00;97668.28;;;18.17;100.00
9746;BME280;4912;50.836;12.958;2022-10-16T04:01:33;97667.13;;;18.07;100.00
9746;BME280;4912;50.836;12.958;2022-10-16T04:04:03;97663.03;;;18.08;100.00
9746;BME280;4912;50.836;12.958;2022-10-16T04:06:33;97661.25;;;18.05;100.00
9746;BME280;4912;50.836;12.958;2022-10-16T04:09:03;97661.25;;;18.05;100.00
9746;BME280;4912;50.836;12.958;2022-10-16T04:11:33;97653.38;;;18.04;100.00
9746;BME280;4912;50.836;12.958;2022-10-16T04:14:03;97672.72;;;18.07;100.00
9746;BME280;4912;50.836;12.958;2022-10-16T04:16:36;97664.53;;;18.09;100.00
9746;BME280;4912;50.836;12.958;2022-10-16T04:19:06;97665.03;;;18.13;100.00
9746;BME280;4912;50.836;12.958;2022-10-16T04:21:36;97671.13;;;18.12;100.00
9746;BME280;4912;50.836;12.958;2022-10-16T04:24:06;97680.56;;;18.14;100.00
9746;BME280;4912;50.836;12.958;2022-10-16T04:26:37;97676.06;;;18.00;100.00
9746;BME280;4912;50.836;12.958;2022-10-16T04:29:07;97672.56;;;17.94;100.00
9746;BME280;4912;50.836;12.958;2022-10-16T04:31:40;97667.28;;;17.85;100.00
9746;BME280;4912;50.836;12.958;2022-10-16T04:34:10;97673.97;;;17.76;100.00
9746;BME280;4912;50.836;12.958;2022-10-16T04:36:40;97681.34;;;17.74;100.00
9746;BME280;4912;50.836;12.958;2022-10-16T04:39:11;97678.56;;;17.74;100.00
9746;BME280;4912;50.836;12.958;2022-10-16T04:41:41;97684.81;;;17.85;100.00
9746;BME280;4912;50.836;12.958;2022-10-16T04:44:11;97682.53;;;17.89;100.00
9746;BME280;4912;50.836;12.958;2022-10-16T04:46:43;97676.63;;;17.93;100.00
9746;BME280;4912;50.836;12.958;2022-10-16T04:49:13;97688.09;;;17.95;100.00
9746;BME280;4912;50.836;12.958;2022-10-16T04:51:43;97687.84;;;17.93;100.00
9746;BME280;4912;50.836;12.958;2022-10-16T04:54:14;97691.09;;;17.97;100.00
9746;BME280;4912;50.836;12.958;2022-10-16T04:56:44;97693.63;;;18.00;100.00
9746;BME280;4912;50.836;12.958;2022-10-16T04:59:18;97696.44;;;18.00;100.00
9746;BME280;4912;50.836;12.958;2022-10-16T05:01:51;97694.94;;;17.94;100.00
9746;BME280;4912;50.836;12.958;2022-10-16T05:04:21;97697.59;;;17.81;100.00
9746;BME280;4912;50.836;12.958;2022-10-16T05:06:52;97703.44;;;17.83;100.00
9746;BME280;4912;50.836;12.958;2022-10-16T05:09:22;97688.47;;;17.75;100.00
9746;BME280;4912;50.836;12.958;2022-10-16T05:11:52;97692.53;;;17.74;100.00
9746;BME280;4912;50.836;12.958;2022-10-16T05:14:22;97698.13;;;17.74;100.00
9746;BME280;4912;50.836;12.958;2022-10-16T05:16:55;97698.91;;;17.74;100.00
9746;BME280;4912;50.836;12.958;2022-10-16T05:19:25;97711.38;;;17.79;100.00
9746;BME280;4912;50.836;12.958;2022-10-16T05:21:55;97710.84;;;17.75;100.00
9746;BME280;4912;50.836;12.958;2022-10-16T05:24:26;97726.97;;;17.57;100.00
9746;BME280;4912;50.836;12.958;2022-10-16T05:26:56;97721.88;;;17.56;100.00
9746;BME280;4912;50.836;12.958;2022-10-16T05:29:26;97721.13;;;17.55;100.00
9746;BME280;4912;50.836;12.958;2022-10-16T05:32:00;97720.38;;;17.55;100.00
9746;BME280;4912;50.836;12.958;2022-10-16T05:34:30;97730.28;;;17.56;100.00
9746;BME280;4912;50.836;12.958;2022-10-16T05:37:00;97739.22;;;17.49;100.00
9746;BME280;4912;50.836;12.958;2022-10-16T05:39:30;97738.47;;;17.48;100.00
9746;BME280;4912;50.836;12.958;2022-10-16T05:42:00;97751.19;;;17.49;100.00
9746;BME280;4912;50.836;12.958;2022-10-16T05:44:30;97743.31;;;17.42;100.00
9746;BME280;4912;50.836;12.958;2022-10-16T05:47:03;97741.03;;;17.41;100.00
9746;BME280;4912;50.836;12.958;2022-10-16T05:49:34;97751.47;;;17.40;100.00
9746;BME280;4912;50.836;12.958;2022-10-16T05:52:07;97754.00;;;17.38;100.00
9746;BME280;4912;50.836;12.958;2022-10-16T05:54:37;97753.78;;;17.36;100.00
9746;BME280;4912;50.836;12.958;2022-10-16T05:57:07;97747.13;;;17.45;100.00
9746;BME280;4912;50.836;12.958;2022-10-16T05:59:37;97757.75;;;17.57;100.00
9746;BME280;4912;50.836;12.958;2022-10-16T06:02:11;97759.78;;;17.63;100.00
9746;BME280;4912;50.836;12.958;2022-10-16T06:04:42;97753.16;;;17.66;100.00
9746;BME280;4912;50.836;12.958;2022-10-16T06:07:12;97753.16;;;17.66;100.00
9746;BME280;4912;50.836;12.958;2022-10-16T06:09:42;97755.41;;;17.73;100.00
9746;BME280;4912;50.836;12.958;2022-10-16T06:12:12;97759.19;;;17.75;100.00
9746;BME280;4912;50.836;12.958;2022-10-16T06:14:43;97749.78;;;17.78;100.00
9746;BME280;4912;50.836;12.958;2022-10-16T06:17:16;97756.09;;;17.84;100.00
9746;BME280;4912;50.836;12.958;2022-10-16T06:19:46;97760.88;;;17.95;100.00
9746;BME280;4912;50.836;12.958;2022-10-16T06:22:16;97767.19;;;18.01;100.00
9746;BME280;4912;50.836;12.958;2022-10-16T06:24:46;97783.69;;;18.05;100.00
9746;BME280;4912;50.836;12.958;2022-10-16T06:27:17;97785.94;;;18.12;100.00
9746;BME280;4912;50.836;12.958;2022-10-16T06:29:47;97786.66;;;18.18;100.00
9746;BME280;4912;50.836;12.958;2022-10-16T06:32:19;97787.94;;;18.17;100.00
9746;BME280;4912;50.836;12.958;2022-10-16T06:34:50;97788.47;;;18.15;100.00
9746;BME280;4912;50.836;12.958;2022-10-16T06:37:20;97795.59;;;18.16;100.00
9746;BME280;4912;50.836;12.958;2022-10-16T06:39:50;97796.38;;;18.11;100.00
9746;BME280;4912;50.836;12.958;2022-10-16T06:42:21;97798.38;;;18.16;100.00
9746;BME280;4912;50.836;12.958;2022-10-16T06:44:52;97804.19;;;18.24;100.00
9746;BME280;4912;50.836;12.958;2022-10-16T06:47:25;97803.59;;;18.36;100.00
9746;BME280;4912;50.836;12.958;2022-10-16T06:49:55;97805.25;;;18.51;100.00
9746;BME280;4912;50.836;12.958;2022-10-16T06:52:27;97812.38;;;18.57;100.00
9746;BME280;4912;50.836;12.958;2022-10-16T06:54:57;97810.53;;;18.65;99.87
9746;BME280;4912;50.836;12.958;2022-10-16T06:57:27;97821.69;;;18.71;99.65
9746;BME280;4912;50.836;12.958;2022-10-16T06:59:58;97832.91;;;18.71;99.75
9746;BME280;4912;50.836;12.958;2022-10-16T07:02:31;97834.13;;;18.75;99.48
9746;BME280;4912;50.836;12.958;2022-10-16T07:05:01;97837.19;;;18.77;99.38
9746;BME280;4912;50.836;12.958;2022-10-16T07:07:31;97836.06;;;18.86;99.79
9746;BME280;4912;50.836;12.958;2022-10-16T07:10:01;97833.06;;;18.84;99.58
9746;BME280;4912;50.836;12.958;2022-10-16T07:12:32;97834.03;;;18.87;99.37
9746;BME280;4912;50.836;12.958;2022-10-16T07:15:02;97831.75;;;18.85;99.10
9746;BME280;4912;50.836;12.958;2022-10-16T07:17:35;97839.72;;;18.75;100.00
9746;BME280;4912;50.836;12.958;2022-10-16T07:20:06;97847.00;;;18.90;99.60
9746;BME280;4912;50.836;12.958;2022-10-16T07:22:37;97854.56;;;19.00;99.25
9746;BME280;4912;50.836;12.958;2022-10-16T07:25:08;97846.66;;;18.99;99.16
9746;BME280;4912;50.836;12.958;2022-10-16T07:27:38;97855.28;;;19.06;98.72
9746;BME280;4912;50.836;12.958;2022-10-16T07:30:09;97850.25;;;19.23;97.90
9746;BME280;4912;50.836;12.958;2022-10-16T07:32:42;97846.41;;;19.51;96.17
9746;BME280;4912;50.836;12.958;2022-10-16T07:35:12;97853.66;;;19.65;95.14
9746;BME280;4912;50.836;12.958;2022-10-16T07:37:44;97846.28;;;19.62;95.24
9746;BME280;4912;50.836;12.958;2022-10-16T07:40:15;97844.09;;;19.55;96.24
9746;BME280;4912;50.836;12.958;2022-10-16T07:42:45;97853.09;;;19.48;97.18
9746;BME280;4912;50.836;12.958;2022-10-16T07:45:15;97861.34;;;19.35;98.09
9746;BME280;4912;50.836;12.958;2022-10-16T07:47:48;97844.22;;;19.38;98.49
9746;BME280;4912;50.836;12.958;2022-10-16T07:50:18;97845.47;;;19.43;98.35
9746;BME280;4912;50.836;12.958;2022-10-16T07:52:48;97853.63;;;19.41;98.92
9746;BME280;4912;50.836;12.958;2022-10-16T07:55:18;97865.16;;;19.37;99.22
9746;BME280;4912;50.836;12.958;2022-10-16T07:57:48;97855.28;;;19.31;99.89
9746;BME280;4912;50.836;12.958;2022-10-16T08:00:18;97848.59;;;19.34;99.96
9746;BME280;4912;50.836;12.958;2022-10-16T08:02:51;97840.59;;;19.43;99.22
9746;BME280;4912;50.836;12.958;2022-10-16T08:05:21;97857.03;;;19.58;98.41
9746;BME280;4912;50.836;12.958;2022-10-16T08:07:51;97861.41;;;19.78;97.56
9746;BME280;4912;50.836;12.958;2022-10-16T08:10:23;97859.16;;;20.14;94.79
9746;BME280;4912;50.836;12.958;2022-10-16T08:12:54;97868.16;;;20.63;90.87
9746;BME280;4912;50.836;12.958;2022-10-16T08:15:25;97881.63;;;20.51;90.96
9746;BME280;4912;50.836;12.958;2022-10-16T08:18:00;97871.22;;;20.46;90.88
9746;BME280;4912;50.836;12.958;2022-10-16T08:20:31;97874.56;;;20.44;91.43
9746;BME280;4912;50.836;12.958;2022-10-16T08:23:02;97880.75;;;20.43;91.71
9746;BME280;4912;50.836;12.958;2022-10-16T08:25:34;97873.50;;;20.48;91.58
9746;BME280;4912;50.836;12.958;2022-10-16T08:28:05;97875.72;;;20.36;92.20
9746;BME280;4912;50.836;12.958;2022-10-16T08:30:37;97881.13;;;20.34;92.71
9746;BME280;4912;50.836;12.958;2022-10-16T08:33:10;97873.69;;;20.36;92.08
9746;BME280;4912;50.836;12.958;2022-10-16T08:35:40;97873.88;;;20.57;91.27
9746;BME280;4912;50.836;12.958;2022-10-16T08:38:11;97874.72;;;20.52;91.43
9746;BME280;4912;50.836;12.958;2022-10-16T08:40:42;97870.38;;;20.51;92.07
9746;BME280;4912;50.836;12.958;2022-10-16T08:43:31;97867.47;;;20.57;90.74
9746;BME280;4912;50.836;12.958;2022-10-16T08:46:21;97872.25;;;20.62;90.63
9746;BME280;4912;50.836;12.958;2022-10-16T08:49:02;97873.09;;;20.57;91.53
9746;BME280;4912;50.836;12.958;2022-10-16T08:51:35;97883.81;;;20.58;91.23
9746;BME280;4912;50.836;12.958;2022-10-16T08:54:21;97887.91;;;20.57;91.28
9746;BME280;4912;50.836;12.958;2022-10-16T08:56:56;97892.03;;;20.56;91.63
9746;BME280;4912;50.836;12.958;2022-10-16T08:59:26;97888.56;;;20.82;90.51
9746;BME280;4912;50.836;12.958;2022-10-16T09:01:56;97890.47;;;20.74;90.37
9746;BME280;4912;50.836;12.958;2022-10-16T09:04:48;97887.13;;;20.75;90.12
9746;BME280;4912;50.836;12.958;2022-10-16T09:07:31;97893.66;;;20.83;88.72
9746;BME280;4912;50.836;12.958;2022-10-16T09:10:14;97896.44;;;21.02;88.34
9746;BME280;4912;50.836;12.958;2022-10-16T09:12:57;97908.38;;;21.21;85.50
9746;BME280;4912;50.836;12.958;2022-10-16T09:15:35;97909.09;;;21.09;86.72
9746;BME280;4912;50.836;12.958;2022-10-16T09:18:14;97909.31;;;21.11;86.45
9746;BME280;4912;50.836;12.958;2022-10-16T09:20:56;97919.47;;;21.01;86.09
9746;BME280;4912;50.836;12.958;2022-10-16T09:23:32;97930.72;;;21.01;86.76
9746;BME280;4912;50.836;12.958;2022-10-16T09:26:05;97932.88;;;20.95;86.63
9746;BME280;4912;50.836;12.958;2022-10-16T09:28:41;97925.75;;;21.07;86.38
9746;BME280;4912;50.836;12.958;2022-10-16T09:31:18;97918.28;;;21.09;86.04
9746;BME280;4912;50.836;12.958;2022-10-16T09:33:53;97926.06;;;21.03;86.52
9746;BME280;4912;50.836;12.958;2022-10-16T09:36:28;97930.19;;;21.02;86.26
9746;BME280;4912;50.836;12.958;2022-10-16T09:39:04;97929.78;;;21.11;85.62
9746;BME280;4912;50.836;12.958;2022-10-16T09:41:36;97925.13;;;21.14;85.63
9746;BME280;4912;50.836;12.958;2022-10-16T09:44:19;97932.22;;;21.20;85.14
9746;BME280;4912;50.836;12.958;2022-10-16T09:47:01;97945.38;;;21.12;84.56
9746;BME280;4912;50.836;12.958;2022-10-16T09:49:32;97938.28;;;21.24;85.05
9746;BME280;4912;50.836;12.958;2022-10-16T09:52:12;97937.56;;;21.37;83.88
9746;BME280;4912;50.836;12.958;2022-10-16T09:54:49;97956.47;;;21.23;83.18
9746;BME280;4912;50.836;12.958;2022-10-16T09:57:22;97955.63;;;21.10;84.21
9746;BME280;4912;50.836;12.958;2022-10-16T09:59:54;97950.22;;;21.12;84.50
9746;BME280;4912;50.836;12.958;2022-10-16T10:02:29;97968.09;;;21.14;84.03
9746;BME280;4912;50.836;12.958;2022-10-16T10:05:01;97968.72;;;21.07;84.18
9746;BME280;4912;50.836;12.958;2022-10-16T10:07:42;97958.84;;;21.01;84.67
9746;BME280;4912;50.836;12.958;2022-10-16T10:10:20;97965.16;;;21.07;84.75
9746;BME280;4912;50.836;12.958;2022-10-16T10:12:52;97962.31;;;21.26;84.04
9746;BME280;4912;50.836;12.958;2022-10-16T10:15:23;97974.81;;;21.43;82.02
9746;BME280;4912;50.836;12.958;2022-10-16T10:17:55;97975.91;;;21.53;81.40
9746;BME280;4912;50.836;12.958;2022-10-16T10:20:29;97970.63;;;21.76;80.29
9746;BME280;4912;50.836;12.958;2022-10-16T10:23:20;97970.00;;;21.83;79.19
9746;BME280;4912;50.836;12.958;2022-10-16T10:25:56;97980.09;;;22.05;77.32
9746;BME280;4912;50.836;12.958;2022-10-16T10:28:44;97972.53;;;22.26;77.57
9746;BME280;4912;50.836;12.958;2022-10-16T10:31:22;97976.53;;;22.31;76.23
9746;BME280;4912;50.836;12.958;2022-10-16T10:34:01;97970.53;;;22.34;76.53
9746;BME280;4912;50.836;12.958;2022-10-16T10:36:41;97970.75;;;22.36;76.27
9746;BME280;4912;50.836;12.958;2022-10-16T10:39:17;97971.53;;;22.37;76.38
9746;BME280;4912;50.836;12.958;2022-10-16T10:42:08;97972.19;;;22.30;76.23
9746;BME280;4912;50.836;12.958;2022-10-16T10:44:59;97972.28;;;22.37;76.39
9746;BME280;4912;50.836;12.958;2022-10-16T10:47:48;97976.59;;;22.52;75.85
9746;BME280;4912;50.836;12.958;2022-10-16T10:50:33;97969.66;;;22.39;75.66
9746;BME280;4912;50.836;12.958;2022-10-16T10:53:10;97974.78;;;22.28;75.89
9746;BME280;4912;50.836;12.958;2022-10-16T10:55:56;97970.78;;;22.23;76.77
9746;BME280;4912;50.836;12.958;2022-10-16T10:58:59;97966.84;;;22.39;75.42
9746;BME280;4912;50.836;12.958;2022-10-16T11:01:40;97966.97;;;22.34;75.93
9746;BME280;4912;50.836;12.958;2022-10-16T11:07:32;97974.63;;;22.73;74.87
9746;BME280;4912;50.836;12.958;2022-10-16T11:10:12;97967.03;;;22.68;74.50
9746;BME280;4912;50.836;12.958;2022-10-16T11:12:50;97977.66;;;22.62;74.43
9746;BME280;4912;50.836;12.958;2022-10-16T11:15:27;97977.06;;;22.90;73.85
9746;BME280;4912;50.836;12.958;2022-10-16T11:18:04;97970.28;;;23.26;72.36
9746;BME280;4912;50.836;12.958;2022-10-16T11:20:41;97967.25;;;23.94;68.22
9746;BME280;4912;50.836;12.958;2022-10-16T11:23:17;97968.47;;;23.78;68.46
9746;BME280;4912;50.836;12.958;2022-10-16T11:25:52;97970.84;;;23.95;68.14
9746;BME280;4912;50.836;12.958;2022-10-16T11:28:33;97964.28;;;23.72;68.37
9746;BME280;4912;50.836;12.958;2022-10-16T11:31:08;97971.69;;;23.54;68.30
9746;BME280;4912;50.836;12.958;2022-10-16T11:33:47;97967.66;;;23.70;69.08
9746;BME280;4912;50.836;12.958;2022-10-16T11:36:23;97970.59;;;24.14;67.14
9746;BME280;4912;50.836;12.958;2022-10-16T11:39:01;97971.44;;;24.73;65.08
9746;BME280;4912;50.836;12.958;2022-10-16T11:41:42;97965.97;;;25.56;61.39
9746;BME280;4912;50.836;12.958;2022-10-16T11:44:26;97978.81;;;25.65;59.77
9746;BME280;4912;50.836;12.958;2022-10-16T11:47:15;97976.88;;;25.14;61.12
9746;BME280;4912;50.836;12.958;2022-10-16T11:50:20;97975.22;;;24.75;62.51
9746;BME280;4912;50.836;12.958;2022-10-16T11:52:58;97983.63;;;24.53;63.86
9746;BME280;4912;50.836;12.958;2022-10-16T11:55:34;97979.56;;;24.33;64.29
9746;BME280;4912;50.836;12.958;2022-10-16T11:58:19;97987.00;;;24.51;64.16
9746;BME280;4912;50.836;12.958;2022-10-16T12:01:01;97980.88;;;24.75;63.55
9746;BME280;4912;50.836;12.958;2022-10-16T12:03:47;97988.41;;;25.54;60.11
9746;BME280;4912;50.836;12.958;2022-10-16T12:06:31;97981.69;;;26.51;56.14
9746;BME280;4912;50.836;12.958;2022-10-16T12:09:04;97994.13;;;27.35;52.98
9746;BME280;4912;50.836;12.958;2022-10-16T12:11:37;97986.56;;;27.38;51.81
9746;BME280;4912;50.836;12.958;2022-10-16T12:17:35;97982.63;;;30.32;43.86
9746;BME280;4912;50.836;12.958;2022-10-16T12:20:27;97984.59;;;30.68;41.70
9746;BME280;4912;50.836;12.958;2022-10-16T12:23:01;97996.88;;;31.68;39.14
9746;BME280;4912;50.836;12.958;2022-10-16T12:25:34;97976.97;;;32.23;37.58
9746;BME280;4912;50.836;12.958;2022-10-16T12:28:20;97985.31;;;31.57;38.99
9746;BME280;4912;50.836;12.958;2022-10-16T12:30:56;97992.38;;;30.19;42.07
9746;BME280;4912;50.836;12.958;2022-10-16T12:33:33;97997.50;;;30.21;41.70
9746;BME280;4912;50.836;12.958;2022-10-16T12:36:08;97996.38;;;29.24;43.49
9746;BME280;4912;50.836;12.958;2022-10-16T12:38:48;97998.66;;;28.30;45.85
9746;BME280;4912;50.836;12.958;2022-10-16T12:41:25;97995.84;;;27.38;48.66
9746;BME280;4912;50.836;12.958;2022-10-16T12:43:57;97996.28;;;26.95;50.75
9746;BME280;4912;50.836;12.958;2022-10-16T12:46:37;98003.06;;;26.52;51.07
9746;BME280;4912;50.836;12.958;2022-10-16T12:49:29;98012.25;;;25.74;53.64
9746;BME280;4912;50.836;12.958;2022-10-16T12:52:00;98000.50;;;25.32;56.33
9746;BME280;4912;50.836;12.958;2022-10-16T12:54:31;98005.81;;;25.66;56.02
9746;BME280;4912;50.836;12.958;2022-10-16T12:57:19;98008.72;;;26.52;53.36
9746;BME280;4912;50.836;12.958;2022-10-16T13:00:13;98009.38;;;27.80;49.33
9746;BME280;4912;50.836;12.958;2022-10-16T13:03:02;98007.88;;;29.16;46.13
9746;BME280;4912;50.836;12.958;2022-10-16T13:06:12;98021.63;;;28.83;46.17
9746;BME280;4912;50.836;12.958;2022-10-16T13:09:02;98011.13;;;27.92;48.05
9746;BME280;4912;50.836;12.958;2022-10-16T13:12:08;98016.25;;;27.12;48.13
9746;BME280;4912;50.836;12.958;2022-10-16T13:15:05;98017.31;;;26.36;50.30
9746;BME280;4912;50.836;12.958;2022-10-16T13:17:52;98008.66;;;25.66;52.38
9746;BME280;4912;50.836;12.958;2022-10-16T13:20:31;98019.19;;;25.35;54.35
9746;BME280;4912;50.836;12.958;2022-10-16T13:23:19;98017.56;;;24.88;56.70
9746;BME280;4912;50.836;12.958;2022-10-16T13:26:03;98030.78;;;24.94;57.36
9746;BME280;4912;50.836;12.958;2022-10-16T13:28:43;98038.16;;;24.25;59.72
9746;BME280;4912;50.836;12.958;2022-10-16T13:31:16;98038.13;;;23.96;61.46
9746;BME280;4912;50.836;12.958;2022-10-16T13:33:50;98041.78;;;23.63;63.54
9746;BME280;4912;50.836;12.958;2022-10-16T13:36:23;98024.44;;;23.59;64.14
9746;BME280;4912;50.836;12.958;2022-10-16T13:39:11;98033.31;;;23.42;65.72
9746;BME280;4912;50.836;12.958;2022-10-16T13:41:44;98034.59;;;23.20;66.82
9746;BME280;4912;50.836;12.958;2022-10-16T13:44:18;98041.09;;;23.15;67.81
9746;BME280;4912;50.836;12.958;2022-10-16T13:46:59;98035.41;;;23.28;67.57
9746;BME280;4912;50.836;12.958;2022-10-16T13:49:29;98037.09;;;22.90;68.52
9746;BME280;4912;50.836;12.958;2022-10-16T13:52:00;98036.00;;;22.80;69.72
9746;BME280;4912;50.836;12.958;2022-10-16T13:54:32;98042.22;;;22.78;70.12